sensor_id;sensor_type;location;lat;lon;timestamp;P1;durP1;ratioP1;P2;durP2;ratioP2
12042;SDS011;6082;49.306;12.862;2022-11-23T00:01:26;5.83;;;3.87;;
12042;SDS011;6082;49.306;12.862;2022-11-23T00:03:53;6.30;;;3.60;;
12042;SDS011;6082;49.306;12.862;2022-11-23T00:06:19;6.17;;;4.00;;
12042;SDS011;6082;49.306;12.862;2022-11-23T00:08:46;5.53;;;3.73;;
12042;SDS011;6082;49.306;12.862;2022-11-23T00:11:12;6.97;;;4.10;;
12042;SDS011;6082;49.306;12.862;2022-11-23T00:13:39;6.23;;;3.73;;
12042;SDS011;6082;49.306;12.862;2022-11-23T00:16:15;6.30;;;3.87;;
12042;SDS011;6082;49.306;12.862;2022-11-23T00:18:42;5.80;;;4.20;;
12042;SDS011;6082;49.306;12.862;2022-11-23T00:21:09;6.90;;;3.87;;
12042;SDS011;6082;49.306;12.862;2022-11-23T00:23:36;5.43;;;3.73;;
12042;SDS011;6082;49.306;12.862;2022-11-23T00:26:02;6.27;;;3.63;;
12042;SDS011;6082;49.306;12.862;2022-11-23T00:28:29;7.27;;;4.10;;
12042;SDS011;6082;49.306;12.862;2022-11-23T00:30:55;6.93;;;4.30;;
12042;SDS011;6082;49.306;12.862;2022-11-23T00:33:23;7.53;;;3.97;;
12042;SDS011;6082;49.306;12.862;2022-11-23T00:36:03;5.93;;;3.73;;
12042;SDS011;6082;49.306;12.862;2022-11-23T00:38:29;9.50;;;4.87;;
12042;SDS011;6082;49.306;12.862;2022-11-23T00:40:59;7.70;;;4.17;;
12042;SDS011;6082;49.306;12.862;2022-11-23T00:43:26;8.67;;;4.70;;
12042;SDS011;6082;49.306;12.862;2022-11-23T00:46:03;12.80;;;5.33;;
12042;SDS011;6082;49.306;12.862;2022-11-23T00:48:29;11.67;;;5.37;;
12042;SDS011;6082;49.306;12.862;2022-11-23T00:50:55;9.77;;;5.40;;
12042;SDS011;6082;49.306;12.862;2022-11-23T00:53:21;6.43;;;4.53;;
12042;SDS011;6082;49.306;12.862;2022-11-23T00:55:51;9.53;;;4.87;;
12042;SDS011;6082;49.306;12.862;2022-11-23T00:58:17;9.33;;;4.63;;
12042;SDS011;6082;49.306;12.862;2022-11-23T01:00:43;8.83;;;5.03;;
12042;SDS011;6082;49.306;12.862;2022-11-23T01:03:09;11.03;;;5.07;;
12042;SDS011;6082;49.306;12.862;2022-11-23T01:05:36;7.47;;;4.50;;
12042;SDS011;6082;49.306;12.862;2022-11-23T01:08:02;8.57;;;4.57;;
12042;SDS011;6082;49.306;12.862;2022-11-23T01:10:29;9.13;;;4.73;;
12042;SDS011;6082;49.306;12.862;2022-11-23T01:12:55;7.77;;;3.97;;
12042;SDS011;6082;49.306;12.862;2022-11-23T01:15:21;7.80;;;4.73;;
12042;SDS011;6082;49.306;12.862;2022-11-23T01:17:47;7.47;;;4.63;;
12042;SDS011;6082;49.306;12.862;2022-11-23T01:20:13;5.83;;;4.17;;
12042;SDS011;6082;49.306;12.862;2022-11-23T01:22:39;7.47;;;4.43;;
12042;SDS011;6082;49.306;12.862;2022-11-23T01:25:07;7.80;;;4.87;;
12042;SDS011;6082;49.306;12.862;2022-11-23T01:27:33;10.27;;;4.80;;
12042;SDS011;6082;49.306;12.862;2022-11-23T01:29:59;8.73;;;5.60;;
12042;SDS011;6082;49.306;12.862;2022-11-23T01:32:25;10.07;;;4.90;;
12042;SDS011;6082;49.306;12.862;2022-11-23T01:34:51;7.57;;;4.60;;
12042;SDS011;6082;49.306;12.862;2022-11-23T01:37:20;8.27;;;4.70;;
12042;SDS011;6082;49.306;12.862;2022-11-23T01:39:47;6.80;;;4.50;;
12042;SDS011;6082;49.306;12.862;2022-11-23T01:42:13;6.13;;;3.83;;
12042;SDS011;6082;49.306;12.862;2022-11-23T01:44:42;6.30;;;4.17;;
12042;SDS011;6082;49.306;12.862;2022-11-23T01:47:08;9.40;;;5.10;;
12042;SDS011;6082;49.306;12.862;2022-11-23T01:49:38;4.60;;;3.47;;
12042;SDS011;6082;49.306;12.862;2022-11-23T01:52:09;10.60;;;3.87;;
12042;SDS011;6082;49.306;12.862;2022-11-23T01:54:44;7.70;;;3.80;;
12042;SDS011;6082;49.306;12.862;2022-11-23T01:57:12;7.37;;;3.70;;
12042;SDS011;6082;49.306;12.862;2022-11-23T01:59:40;8.20;;;4.50;;
12042;SDS011;6082;49.306;12.862;2022-11-23T02:02:06;5.57;;;3.40;;
12042;SDS011;6082;49.306;12.862;2022-11-23T02:04:33;5.93;;;3.77;;
12042;SDS011;6082;49.306;12.862;2022-11-23T02:07:01;6.00;;;3.67;;
12042;SDS011;6082;49.306;12.862;2022-11-23T02:09:28;6.40;;;3.47;;
12042;SDS011;6082;49.306;12.862;2022-11-23T02:11:56;5.43;;;3.57;;
12042;SDS011;6082;49.306;12.862;2022-11-23T02:14:22;8.70;;;4.07;;
12042;SDS011;6082;49.306;12.862;2022-11-23T02:16:48;6.37;;;3.77;;
12042;SDS011;6082;49.306;12.862;2022-11-23T02:22:13;5.50;;;3.40;;
12042;SDS011;6082;49.306;12.862;2022-11-23T02:24:42;6.20;;;3.90;;
12042;SDS011;6082;49.306;12.862;2022-11-23T02:27:11;5.00;;;3.83;;
12042;SDS011;6082;49.306;12.862;2022-11-23T02:29:38;5.80;;;3.83;;
12042;SDS011;6082;49.306;12.862;2022-11-23T02:32:04;4.83;;;3.50;;
12042;SDS011;6082;49.306;12.862;2022-11-23T02:34:30;5.10;;;3.47;;
12042;SDS011;6082;49.306;12.862;2022-11-23T02:36:56;5.80;;;3.80;;
12042;SDS011;6082;49.306;12.862;2022-11-23T02:41:52;4.17;;;3.13;;
12042;SDS011;6082;49.306;12.862;2022-11-23T02:44:33;5.47;;;3.33;;
12042;SDS011;6082;49.306;12.862;2022-11-23T02:47:01;3.80;;;2.77;;
12042;SDS011;6082;49.306;12.862;2022-11-23T02:49:27;6.90;;;3.07;;
12042;SDS011;6082;49.306;12.862;2022-11-23T02:51:54;5.17;;;3.43;;
12042;SDS011;6082;49.306;12.862;2022-11-23T02:54:20;5.63;;;3.60;;
12042;SDS011;6082;49.306;12.862;2022-11-23T02:56:46;6.57;;;3.40;;
12042;SDS011;6082;49.306;12.862;2022-11-23T02:59:12;4.63;;;3.17;;
12042;SDS011;6082;49.306;12.862;2022-11-23T03:01:38;6.43;;;3.40;;
12042;SDS011;6082;49.306;12.862;2022-11-23T03:04:05;5.50;;;3.13;;
12042;SDS011;6082;49.306;12.862;2022-11-23T03:06:31;6.30;;;3.23;;
12042;SDS011;6082;49.306;12.862;2022-11-23T03:08:57;5.43;;;3.03;;
12042;SDS011;6082;49.306;12.862;2022-11-23T03:11:23;6.13;;;3.80;;
12042;SDS011;6082;49.306;12.862;2022-11-23T03:13:49;4.93;;;3.70;;
12042;SDS011;6082;49.306;12.862;2022-11-23T03:16:15;7.50;;;4.17;;
12042;SDS011;6082;49.306;12.862;2022-11-23T03:18:41;7.10;;;4.10;;
12042;SDS011;6082;49.306;12.862;2022-11-23T03:21:07;4.80;;;3.33;;
12042;SDS011;6082;49.306;12.862;2022-11-23T03:23:34;7.67;;;3.83;;
12042;SDS011;6082;49.306;12.862;2022-11-23T03:26:00;7.10;;;3.63;;
12042;SDS011;6082;49.306;12.862;2022-11-23T03:28:27;4.67;;;3.50;;
12042;SDS011;6082;49.306;12.862;2022-11-23T03:30:53;6.23;;;3.63;;
12042;SDS011;6082;49.306;12.862;2022-11-23T03:33:19;5.90;;;3.87;;
12042;SDS011;6082;49.306;12.862;2022-11-23T03:35:45;6.70;;;3.87;;
12042;SDS011;6082;49.306;12.862;2022-11-23T03:38:11;4.40;;;3.63;;
12042;SDS011;6082;49.306;12.862;2022-11-23T03:40:37;8.83;;;4.93;;
12042;SDS011;6082;49.306;12.862;2022-11-23T03:43:04;6.30;;;3.67;;
12042;SDS011;6082;49.306;12.862;2022-11-23T03:45:30;7.03;;;3.90;;
12042;SDS011;6082;49.306;12.862;2022-11-23T03:47:56;7.13;;;3.87;;
12042;SDS011;6082;49.306;12.862;2022-11-23T03:50:22;4.03;;;3.07;;
12042;SDS011;6082;49.306;12.862;2022-11-23T03:52:48;5.20;;;3.47;;
12042;SDS011;6082;49.306;12.862;2022-11-23T03:55:15;5.30;;;3.23;;
12042;SDS011;6082;49.306;12.862;2022-11-23T03:57:46;5.00;;;3.10;;
12042;SDS011;6082;49.306;12.862;2022-11-23T04:00:12;3.67;;;2.97;;
12042;SDS011;6082;49.306;12.862;2022-11-23T04:02:39;6.03;;;3.73;;
12042;SDS011;6082;49.306;12.862;2022-11-23T04:05:05;5.90;;;3.90;;
12042;SDS011;6082;49.306;12.862;2022-11-23T04:07:31;5.03;;;3.43;;
12042;SDS011;6082;49.306;12.862;2022-11-23T04:09:57;6.47;;;3.23;;
12042;SDS011;6082;49.306;12.862;2022-11-23T04:12:24;5.03;;;3.10;;
12042;SDS011;6082;49.306;12.862;2022-11-23T04:14:50;7.10;;;4.00;;
12042;SDS011;6082;49.306;12.862;2022-11-23T04:17:16;4.33;;;3.30;;
12042;SDS011;6082;49.306;12.862;2022-11-23T04:19:42;5.63;;;3.53;;
12042;SDS011;6082;49.306;12.862;2022-11-23T04:22:08;6.10;;;3.73;;
12042;SDS011;6082;49.306;12.862;2022-11-23T04:24:34;6.43;;;4.47;;
12042;SDS011;6082;49.306;12.862;2022-11-23T04:27:00;5.60;;;3.83;;
12042;SDS011;6082;49.306;12.862;2022-11-23T04:29:26;7.67;;;4.43;;
12042;SDS011;6082;49.306;12.862;2022-11-23T04:31:52;5.40;;;3.50;;
12042;SDS011;6082;49.306;12.862;2022-11-23T04:34:19;5.23;;;3.50;;
12042;SDS011;6082;49.306;12.862;2022-11-23T04:36:45;5.67;;;3.03;;
12042;SDS011;6082;49.306;12.862;2022-11-23T04:39:11;5.23;;;3.73;;
12042;SDS011;6082;49.306;12.862;2022-11-23T04:41:38;5.70;;;3.70;;
12042;SDS011;6082;49.306;12.862;2022-11-23T04:44:04;5.97;;;3.20;;
12042;SDS011;6082;49.306;12.862;2022-11-23T04:46:30;7.60;;;4.57;;
12042;SDS011;6082;49.306;12.862;2022-11-23T04:48:56;6.17;;;4.43;;
12042;SDS011;6082;49.306;12.862;2022-11-23T04:51:24;6.13;;;3.70;;
12042;SDS011;6082;49.306;12.862;2022-11-23T04:53:50;7.23;;;3.80;;
12042;SDS011;6082;49.306;12.862;2022-11-23T04:56:16;7.20;;;3.97;;
12042;SDS011;6082;49.306;12.862;2022-11-23T04:58:42;6.47;;;3.70;;
12042;SDS011;6082;49.306;12.862;2022-11-23T05:01:08;6.43;;;3.57;;
12042;SDS011;6082;49.306;12.862;2022-11-23T05:03:34;5.90;;;3.50;;
12042;SDS011;6082;49.306;12.862;2022-11-23T05:06:01;4.60;;;2.90;;
12042;SDS011;6082;49.306;12.862;2022-11-23T05:08:27;5.43;;;3.37;;
12042;SDS011;6082;49.306;12.862;2022-11-23T05:10:54;5.47;;;3.80;;
12042;SDS011;6082;49.306;12.862;2022-11-23T05:13:20;6.77;;;3.77;;
12042;SDS011;6082;49.306;12.862;2022-11-23T05:15:46;7.67;;;4.27;;
12042;SDS011;6082;49.306;12.862;2022-11-23T05:18:12;6.17;;;4.17;;
12042;SDS011;6082;49.306;12.862;2022-11-23T05:20:39;7.80;;;4.13;;
12042;SDS011;6082;49.306;12.862;2022-11-23T05:23:06;7.07;;;4.03;;
12042;SDS011;6082;49.306;12.862;2022-11-23T05:25:33;7.20;;;3.90;;
12042;SDS011;6082;49.306;12.862;2022-11-23T05:27:59;6.80;;;4.53;;
12042;SDS011;6082;49.306;12.862;2022-11-23T05:30:25;6.40;;;4.33;;
12042;SDS011;6082;49.306;12.862;2022-11-23T05:32:58;8.33;;;4.53;;
12042;SDS011;6082;49.306;12.862;2022-11-23T05:35:25;8.67;;;4.60;;
12042;SDS011;6082;49.306;12.862;2022-11-23T05:37:51;7.80;;;3.97;;
12042;SDS011;6082;49.306;12.862;2022-11-23T05:40:18;5.77;;;3.47;;
12042;SDS011;6082;49.306;12.862;2022-11-23T05:42:44;7.40;;;4.50;;
12042;SDS011;6082;49.306;12.862;2022-11-23T05:45:10;7.90;;;4.33;;
12042;SDS011;6082;49.306;12.862;2022-11-23T05:47:36;7.00;;;4.13;;
12042;SDS011;6082;49.306;12.862;2022-11-23T05:50:02;6.57;;;3.73;;
12042;SDS011;6082;49.306;12.862;2022-11-23T05:52:28;9.47;;;4.07;;
12042;SDS011;6082;49.306;12.862;2022-11-23T05:54:54;6.43;;;3.73;;
12042;SDS011;6082;49.306;12.862;2022-11-23T05:57:20;6.13;;;3.90;;
12042;SDS011;6082;49.306;12.862;2022-11-23T05:59:49;7.70;;;4.40;;
12042;SDS011;6082;49.306;12.862;2022-11-23T06:02:15;6.07;;;3.23;;
12042;SDS011;6082;49.306;12.862;2022-11-23T06:04:42;8.13;;;4.80;;
12042;SDS011;6082;49.306;12.862;2022-11-23T06:07:08;8.80;;;5.03;;
12042;SDS011;6082;49.306;12.862;2022-11-23T06:09:34;7.43;;;4.67;;
12042;SDS011;6082;49.306;12.862;2022-11-23T06:12:00;10.10;;;4.97;;
12042;SDS011;6082;49.306;12.862;2022-11-23T06:14:26;6.83;;;4.50;;
12042;SDS011;6082;49.306;12.862;2022-11-23T06:16:52;7.67;;;4.60;;
12042;SDS011;6082;49.306;12.862;2022-11-23T06:19:18;6.80;;;4.03;;
12042;SDS011;6082;49.306;12.862;2022-11-23T06:21:44;6.30;;;4.27;;
12042;SDS011;6082;49.306;12.862;2022-11-23T06:24:10;6.93;;;4.30;;
12042;SDS011;6082;49.306;12.862;2022-11-23T06:26:37;8.10;;;4.30;;
12042;SDS011;6082;49.306;12.862;2022-11-23T06:29:03;6.67;;;4.33;;
12042;SDS011;6082;49.306;12.862;2022-11-23T06:31:29;6.90;;;4.50;;
12042;SDS011;6082;49.306;12.862;2022-11-23T06:33:59;8.40;;;4.33;;
12042;SDS011;6082;49.306;12.862;2022-11-23T06:36:26;8.33;;;4.83;;
12042;SDS011;6082;49.306;12.862;2022-11-23T06:38:52;6.60;;;3.93;;
12042;SDS011;6082;49.306;12.862;2022-11-23T06:41:19;6.27;;;3.93;;
12042;SDS011;6082;49.306;12.862;2022-11-23T06:43:45;7.00;;;3.83;;
12042;SDS011;6082;49.306;12.862;2022-11-23T06:46:11;7.97;;;4.00;;
12042;SDS011;6082;49.306;12.862;2022-11-23T06:48:37;6.63;;;3.67;;
12042;SDS011;6082;49.306;12.862;2022-11-23T06:51:03;6.07;;;3.97;;
12042;SDS011;6082;49.306;12.862;2022-11-23T06:53:29;11.50;;;5.70;;
12042;SDS011;6082;49.306;12.862;2022-11-23T06:55:59;9.13;;;5.33;;
12042;SDS011;6082;49.306;12.862;2022-11-23T06:58:25;10.73;;;5.43;;
12042;SDS011;6082;49.306;12.862;2022-11-23T07:00:51;7.53;;;4.63;;
12042;SDS011;6082;49.306;12.862;2022-11-23T07:03:21;6.73;;;4.13;;
12042;SDS011;6082;49.306;12.862;2022-11-23T07:05:47;10.60;;;4.73;;
12042;SDS011;6082;49.306;12.862;2022-11-23T07:08:14;7.67;;;4.53;;
12042;SDS011;6082;49.306;12.862;2022-11-23T07:10:40;7.07;;;4.43;;
12042;SDS011;6082;49.306;12.862;2022-11-23T07:13:07;7.97;;;4.53;;
12042;SDS011;6082;49.306;12.862;2022-11-23T07:15:33;8.03;;;3.87;;
12042;SDS011;6082;49.306;12.862;2022-11-23T07:17:59;6.33;;;3.60;;
12042;SDS011;6082;49.306;12.862;2022-11-23T07:20:25;6.93;;;4.40;;
12042;SDS011;6082;49.306;12.862;2022-11-23T07:23:01;6.47;;;3.33;;
12042;SDS011;6082;49.306;12.862;2022-11-23T07:25:28;8.10;;;4.73;;
12042;SDS011;6082;49.306;12.862;2022-11-23T07:27:55;9.47;;;4.53;;
12042;SDS011;6082;49.306;12.862;2022-11-23T07:30:22;7.70;;;4.40;;
12042;SDS011;6082;49.306;12.862;2022-11-23T07:32:48;6.37;;;4.43;;
12042;SDS011;6082;49.306;12.862;2022-11-23T07:35:14;9.43;;;4.23;;
12042;SDS011;6082;49.306;12.862;2022-11-23T07:37:40;7.87;;;4.97;;
12042;SDS011;6082;49.306;12.862;2022-11-23T07:40:07;8.60;;;4.67;;
12042;SDS011;6082;49.306;12.862;2022-11-23T07:42:33;9.87;;;5.77;;
12042;SDS011;6082;49.306;12.862;2022-11-23T07:44:59;9.33;;;4.97;;
12042;SDS011;6082;49.306;12.862;2022-11-23T07:47:26;8.10;;;4.63;;
12042;SDS011;6082;49.306;12.862;2022-11-23T07:49:52;7.83;;;4.70;;
12042;SDS011;6082;49.306;12.862;2022-11-23T07:52:20;7.37;;;4.20;;
12042;SDS011;6082;49.306;12.862;2022-11-23T07:54:46;8.60;;;4.83;;
12042;SDS011;6082;49.306;12.862;2022-11-23T07:57:14;5.83;;;4.03;;
12042;SDS011;6082;49.306;12.862;2022-11-23T07:59:40;8.97;;;4.90;;
12042;SDS011;6082;49.306;12.862;2022-11-23T08:02:08;7.23;;;4.47;;
12042;SDS011;6082;49.306;12.862;2022-11-23T08:04:34;6.70;;;4.20;;
12042;SDS011;6082;49.306;12.862;2022-11-23T08:07:01;6.20;;;4.23;;
12042;SDS011;6082;49.306;12.862;2022-11-23T08:09:27;7.93;;;4.30;;
12042;SDS011;6082;49.306;12.862;2022-11-23T08:11:54;6.33;;;4.50;;
12042;SDS011;6082;49.306;12.862;2022-11-23T08:14:20;9.00;;;5.60;;
12042;SDS011;6082;49.306;12.862;2022-11-23T08:16:48;8.37;;;5.10;;
12042;SDS011;6082;49.306;12.862;2022-11-23T08:19:17;7.23;;;4.57;;
12042;SDS011;6082;49.306;12.862;2022-11-23T08:21:44;7.17;;;4.07;;
12042;SDS011;6082;49.306;12.862;2022-11-23T08:24:10;7.30;;;4.30;;
12042;SDS011;6082;49.306;12.862;2022-11-23T08:26:36;8.10;;;4.83;;
12042;SDS011;6082;49.306;12.862;2022-11-23T08:29:03;10.60;;;5.73;;
12042;SDS011;6082;49.306;12.862;2022-11-23T08:31:29;11.10;;;6.93;;
12042;SDS011;6082;49.306;12.862;2022-11-23T08:33:55;17.23;;;10.17;;
12042;SDS011;6082;49.306;12.862;2022-11-23T08:36:21;20.97;;;12.00;;
12042;SDS011;6082;49.306;12.862;2022-11-23T08:38:47;17.13;;;11.43;;
12042;SDS011;6082;49.306;12.862;2022-11-23T08:41:16;22.07;;;12.13;;
12042;SDS011;6082;49.306;12.862;2022-11-23T08:43:45;20.13;;;11.13;;
12042;SDS011;6082;49.306;12.862;2022-11-23T08:46:13;17.60;;;9.57;;
12042;SDS011;6082;49.306;12.862;2022-11-23T08:48:39;16.87;;;10.03;;
12042;SDS011;6082;49.306;12.862;2022-11-23T08:51:05;14.90;;;9.03;;
12042;SDS011;6082;49.306;12.862;2022-11-23T08:53:31;12.07;;;7.80;;
12042;SDS011;6082;49.306;12.862;2022-11-23T08:56:01;11.97;;;6.53;;
12042;SDS011;6082;49.306;12.862;2022-11-23T08:58:27;11.33;;;6.00;;
12042;SDS011;6082;49.306;12.862;2022-11-23T09:00:53;10.33;;;6.00;;
12042;SDS011;6082;49.306;12.862;2022-11-23T09:03:19;13.50;;;6.73;;
12042;SDS011;6082;49.306;12.862;2022-11-23T09:05:45;13.33;;;7.63;;
12042;SDS011;6082;49.306;12.862;2022-11-23T09:08:12;16.27;;;8.67;;
12042;SDS011;6082;49.306;12.862;2022-11-23T09:10:40;11.00;;;6.97;;
12042;SDS011;6082;49.306;12.862;2022-11-23T09:13:06;10.83;;;6.20;;
12042;SDS011;6082;49.306;12.862;2022-11-23T09:15:32;11.60;;;6.00;;
12042;SDS011;6082;49.306;12.862;2022-11-23T09:17:58;10.17;;;5.93;;
12042;SDS011;6082;49.306;12.862;2022-11-23T09:20:25;10.20;;;5.83;;
12042;SDS011;6082;49.306;12.862;2022-11-23T09:22:51;12.23;;;7.03;;
12042;SDS011;6082;49.306;12.862;2022-11-23T09:25:18;17.60;;;8.67;;
12042;SDS011;6082;49.306;12.862;2022-11-23T09:27:44;20.23;;;10.93;;
12042;SDS011;6082;49.306;12.862;2022-11-23T09:30:10;17.23;;;9.73;;
12042;SDS011;6082;49.306;12.862;2022-11-23T09:32:36;20.37;;;11.17;;
12042;SDS011;6082;49.306;12.862;2022-11-23T09:35:03;16.47;;;9.33;;
12042;SDS011;6082;49.306;12.862;2022-11-23T09:37:29;19.60;;;10.23;;
12042;SDS011;6082;49.306;12.862;2022-11-23T09:39:55;18.43;;;11.03;;
12042;SDS011;6082;49.306;12.862;2022-11-23T09:50:26;13.33;;;8.20;;
12042;SDS011;6082;49.306;12.862;2022-11-23T09:52:53;15.93;;;8.73;;
12042;SDS011;6082;49.306;12.862;2022-11-23T09:57:57;22.00;;;14.23;;
12042;SDS011;6082;49.306;12.862;2022-11-23T10:00:24;18.73;;;11.60;;
12042;SDS011;6082;49.306;12.862;2022-11-23T10:02:51;13.43;;;7.90;;
12042;SDS011;6082;49.306;12.862;2022-11-23T10:05:19;18.07;;;7.23;;
12042;SDS011;6082;49.306;12.862;2022-11-23T10:08:07;14.40;;;7.07;;
12042;SDS011;6082;49.306;12.862;2022-11-23T10:10:39;21.90;;;11.10;;
12042;SDS011;6082;49.306;12.862;2022-11-23T10:18:29;11.00;;;6.40;;
12042;SDS011;6082;49.306;12.862;2022-11-23T10:26:14;8.87;;;5.17;;
12042;SDS011;6082;49.306;12.862;2022-11-23T10:28:40;9.47;;;5.93;;
12042;SDS011;6082;49.306;12.862;2022-11-23T10:31:20;12.47;;;6.37;;
12042;SDS011;6082;49.306;12.862;2022-11-23T10:33:48;9.87;;;5.40;;
12042;SDS011;6082;49.306;12.862;2022-11-23T10:36:18;9.53;;;5.33;;
12042;SDS011;6082;49.306;12.862;2022-11-23T10:38:45;8.53;;;5.73;;
12042;SDS011;6082;49.306;12.862;2022-11-23T10:41:14;11.10;;;5.83;;
12042;SDS011;6082;49.306;12.862;2022-11-23T10:43:49;9.13;;;5.93;;
12042;SDS011;6082;49.306;12.862;2022-11-23T10:48:48;10.10;;;4.93;;
12042;SDS011;6082;49.306;12.862;2022-11-23T10:51:36;9.27;;;5.67;;
12042;SDS011;6082;49.306;12.862;2022-11-23T10:54:03;9.13;;;5.07;;
12042;SDS011;6082;49.306;12.862;2022-11-23T10:56:29;10.57;;;6.03;;
12042;SDS011;6082;49.306;12.862;2022-11-23T10:58:56;11.17;;;5.80;;
12042;SDS011;6082;49.306;12.862;2022-11-23T11:01:23;9.43;;;5.90;;
12042;SDS011;6082;49.306;12.862;2022-11-23T11:03:51;8.93;;;5.00;;
12042;SDS011;6082;49.306;12.862;2022-11-23T11:06:21;8.80;;;5.20;;
12042;SDS011;6082;49.306;12.862;2022-11-23T11:08:53;8.90;;;5.73;;
12042;SDS011;6082;49.306;12.862;2022-11-23T11:13:48;11.43;;;5.73;;
12042;SDS011;6082;49.306;12.862;2022-11-23T11:16:19;9.37;;;6.20;;
12042;SDS011;6082;49.306;12.862;2022-11-23T11:18:46;10.07;;;6.10;;
12042;SDS011;6082;49.306;12.862;2022-11-23T11:23:46;11.97;;;6.33;;
12042;SDS011;6082;49.306;12.862;2022-11-23T11:28:42;7.20;;;5.47;;
12042;SDS011;6082;49.306;12.862;2022-11-23T11:33:51;10.50;;;5.50;;
12042;SDS011;6082;49.306;12.862;2022-11-23T11:36:18;8.37;;;5.57;;
12042;SDS011;6082;49.306;12.862;2022-11-23T11:38:47;8.93;;;5.87;;
12042;SDS011;6082;49.306;12.862;2022-11-23T11:41:13;10.10;;;6.23;;
12042;SDS011;6082;49.306;12.862;2022-11-23T11:43:45;8.57;;;6.03;;
12042;SDS011;6082;49.306;12.862;2022-11-23T11:46:19;8.70;;;6.17;;
12042;SDS011;6082;49.306;12.862;2022-11-23T11:48:48;13.40;;;7.07;;
12042;SDS011;6082;49.306;12.862;2022-11-23T11:51:37;10.83;;;6.27;;
12042;SDS011;6082;49.306;12.862;2022-11-23T11:56:51;10.47;;;6.47;;
12042;SDS011;6082;49.306;12.862;2022-11-23T11:59:30;10.93;;;6.20;;
12042;SDS011;6082;49.306;12.862;2022-11-23T12:02:13;12.40;;;6.63;;
12042;SDS011;6082;49.306;12.862;2022-11-23T12:04:56;10.73;;;6.17;;
12042;SDS011;6082;49.306;12.862;2022-11-23T12:07:28;15.30;;;5.80;;
12042;SDS011;6082;49.306;12.862;2022-11-23T12:09:56;10.97;;;6.13;;
12042;SDS011;6082;49.306;12.862;2022-11-23T12:12:25;9.97;;;5.37;;
12042;SDS011;6082;49.306;12.862;2022-11-23T12:14:51;9.43;;;5.97;;
12042;SDS011;6082;49.306;12.862;2022-11-23T12:35:44;8.07;;;5.50;;
12042;SDS011;6082;49.306;12.862;2022-11-23T12:44:16;10.90;;;6.00;;
12042;SDS011;6082;49.306;12.862;2022-11-23T12:49:57;12.63;;;7.00;;
12042;SDS011;6082;49.306;12.862;2022-11-23T12:52:29;10.97;;;6.30;;
12042;SDS011;6082;49.306;12.862;2022-11-23T12:57:37;9.63;;;6.10;;
12042;SDS011;6082;49.306;12.862;2022-11-23T13:00:05;10.30;;;6.30;;
12042;SDS011;6082;49.306;12.862;2022-11-23T13:10:11;14.33;;;6.70;;
12042;SDS011;6082;49.306;12.862;2022-11-23T13:22:48;12.40;;;7.20;;
12042;SDS011;6082;49.306;12.862;2022-11-23T13:25:23;8.73;;;5.70;;
12042;SDS011;6082;49.306;12.862;2022-11-23T13:43:28;8.90;;;5.87;;
12042;SDS011;6082;49.306;12.862;2022-11-23T13:48:40;15.27;;;7.40;;
12042;SDS011;6082;49.306;12.862;2022-11-23T13:51:06;16.33;;;8.10;;
12042;SDS011;6082;49.306;12.862;2022-11-23T13:53:34;23.87;;;11.93;;
12042;SDS011;6082;49.306;12.862;2022-11-23T13:58:53;13.80;;;7.70;;
12042;SDS011;6082;49.306;12.862;2022-11-23T14:04:21;12.27;;;5.87;;
12042;SDS011;6082;49.306;12.862;2022-11-23T14:06:48;10.63;;;5.90;;
12042;SDS011;6082;49.306;12.862;2022-11-23T14:20:07;7.93;;;5.67;;
12042;SDS011;6082;49.306;12.862;2022-11-23T14:28:06;12.67;;;6.33;;
12042;SDS011;6082;49.306;12.862;2022-11-23T14:33:18;8.13;;;5.27;;
12042;SDS011;6082;49.306;12.862;2022-11-23T14:35:51;10.67;;;6.37;;
12042;SDS011;6082;49.306;12.862;2022-11-23T14:41:05;15.40;;;8.53;;
12042;SDS011;6082;49.306;12.862;2022-11-23T14:43:32;15.03;;;7.83;;
12042;SDS011;6082;49.306;12.862;2022-11-23T14:46:03;33.17;;;13.43;;
12042;SDS011;6082;49.306;12.862;2022-11-23T14:48:32;29.23;;;13.13;;
12042;SDS011;6082;49.306;12.862;2022-11-23T14:53:28;24.57;;;13.27;;
12042;SDS011;6082;49.306;12.862;2022-11-23T14:55:55;21.23;;;10.90;;
12042;SDS011;6082;49.306;12.862;2022-11-23T14:58:22;17.70;;;9.10;;
12042;SDS011;6082;49.306;12.862;2022-11-23T15:00:49;16.80;;;8.47;;
12042;SDS011;6082;49.306;12.862;2022-11-23T15:03:17;12.47;;;7.60;;
12042;SDS011;6082;49.306;12.862;2022-11-23T15:05:51;12.17;;;6.73;;
12042;SDS011;6082;49.306;12.862;2022-11-23T15:08:26;11.27;;;6.50;;
12042;SDS011;6082;49.306;12.862;2022-11-23T15:13:29;8.53;;;6.30;;
12042;SDS011;6082;49.306;12.862;2022-11-23T15:15:56;9.97;;;5.47;;
12042;SDS011;6082;49.306;12.862;2022-11-23T15:18:32;7.40;;;4.63;;
12042;SDS011;6082;49.306;12.862;2022-11-23T15:21:03;7.07;;;4.63;;
12042;SDS011;6082;49.306;12.862;2022-11-23T15:23:34;9.97;;;5.40;;
12042;SDS011;6082;49.306;12.862;2022-11-23T15:26:04;7.67;;;5.27;;
12042;SDS011;6082;49.306;12.862;2022-11-23T15:28:32;6.53;;;4.63;;
12042;SDS011;6082;49.306;12.862;2022-11-23T15:31:04;9.70;;;5.03;;
12042;SDS011;6082;49.306;12.862;2022-11-23T15:33:43;8.37;;;5.30;;
12042;SDS011;6082;49.306;12.862;2022-11-23T15:36:10;9.43;;;6.00;;
12042;SDS011;6082;49.306;12.862;2022-11-23T15:38:36;7.93;;;5.97;;
12042;SDS011;6082;49.306;12.862;2022-11-23T15:41:02;9.40;;;5.27;;
12042;SDS011;6082;49.306;12.862;2022-11-23T15:43:29;7.73;;;5.03;;
12042;SDS011;6082;49.306;12.862;2022-11-23T15:45:57;8.73;;;4.93;;
12042;SDS011;6082;49.306;12.862;2022-11-23T15:48:29;9.40;;;4.97;;
12042;SDS011;6082;49.306;12.862;2022-11-23T15:50:59;6.90;;;4.23;;
12042;SDS011;6082;49.306;12.862;2022-11-23T15:53:30;8.10;;;5.17;;
12042;SDS011;6082;49.306;12.862;2022-11-23T15:55:58;7.67;;;4.97;;
12042;SDS011;6082;49.306;12.862;2022-11-23T15:58:25;8.50;;;4.63;;
12042;SDS011;6082;49.306;12.862;2022-11-23T16:00:55;7.90;;;4.67;;
12042;SDS011;6082;49.306;12.862;2022-11-23T16:03:28;6.63;;;4.70;;
12042;SDS011;6082;49.306;12.862;2022-11-23T16:08:37;8.63;;;5.10;;
12042;SDS011;6082;49.306;12.862;2022-11-23T16:11:05;11.70;;;5.20;;
12042;SDS011;6082;49.306;12.862;2022-11-23T16:13:43;8.03;;;4.60;;
12042;SDS011;6082;49.306;12.862;2022-11-23T16:16:19;8.87;;;5.00;;
12042;SDS011;6082;49.306;12.862;2022-11-23T16:18:48;6.43;;;4.27;;
12042;SDS011;6082;49.306;12.862;2022-11-23T16:21:22;6.93;;;4.07;;
12042;SDS011;6082;49.306;12.862;2022-11-23T16:23:50;7.87;;;3.53;;
12042;SDS011;6082;49.306;12.862;2022-11-23T16:26:18;7.17;;;4.00;;
12042;SDS011;6082;49.306;12.862;2022-11-23T16:28:55;6.87;;;4.37;;
12042;SDS011;6082;49.306;12.862;2022-11-23T16:31:24;6.67;;;3.90;;
12042;SDS011;6082;49.306;12.862;2022-11-23T16:33:52;6.40;;;3.53;;
12042;SDS011;6082;49.306;12.862;2022-11-23T16:36:18;8.60;;;5.00;;
12042;SDS011;6082;49.306;12.862;2022-11-23T16:38:44;7.23;;;3.97;;
12042;SDS011;6082;49.306;12.862;2022-11-23T16:41:10;7.23;;;4.40;;
12042;SDS011;6082;49.306;12.862;2022-11-23T16:43:36;8.27;;;3.73;;
12042;SDS011;6082;49.306;12.862;2022-11-23T16:46:02;8.47;;;5.80;;
12042;SDS011;6082;49.306;12.862;2022-11-23T16:48:36;10.67;;;6.00;;
12042;SDS011;6082;49.306;12.862;2022-11-23T16:51:04;11.83;;;7.63;;
12042;SDS011;6082;49.306;12.862;2022-11-23T16:53:30;14.03;;;7.73;;
12042;SDS011;6082;49.306;12.862;2022-11-23T16:55:57;12.23;;;7.40;;
12042;SDS011;6082;49.306;12.862;2022-11-23T16:58:25;10.43;;;6.20;;
12042;SDS011;6082;49.306;12.862;2022-11-23T17:00:52;11.47;;;6.63;;
12042;SDS011;6082;49.306;12.862;2022-11-23T17:03:19;11.27;;;6.27;;
12042;SDS011;6082;49.306;12.862;2022-11-23T17:05:46;12.17;;;6.83;;
12042;SDS011;6082;49.306;12.862;2022-11-23T17:08:12;11.07;;;6.07;;
12042;SDS011;6082;49.306;12.862;2022-11-23T17:10:39;9.67;;;5.07;;